sensor_id;sensor_type;location;lat;lon;timestamp;temperature;humidity
14182;DHT22;7171;50.936;6.764;2023-08-08T00:02:06;15.50;99.90
14182;DHT22;7171;50.936;6.764;2023-08-08T00:04:33;15.50;99.90
14182;DHT22;7171;50.936;6.764;2023-08-08T00:07:00;15.50;99.90
14182;DHT22;7171;50.936;6.764;2023-08-08T00:09:27;15.50;99.90
14182;DHT22;7171;50.936;6.764;2023-08-08T00:11:55;15.50;99.90
14182;DHT22;7171;50.936;6.764;2023-08-08T00:14:22;15.50;99.90
14182;DHT22;7171;50.936;6.764;2023-08-08T00:16:49;15.50;99.90
14182;DHT22;7171;50.936;6.764;2023-08-08T00:19:16;15.50;99.90
14182;DHT22;7171;50.936;6.764;2023-08-08T00:21:42;15.40;99.90
14182;DHT22;7171;50.936;6.764;2023-08-08T00:24:09;15.40;99.90
14182;DHT22;7171;50.936;6.764;2023-08-08T00:26:36;15.40;99.90
14182;DHT22;7171;50.936;6.764;2023-08-08T00:29:04;15.40;99.90
14182;DHT22;7171;50.936;6.764;2023-08-08T00:31:31;15.40;99.90
14182;DHT22;7171;50.936;6.764;2023-08-08T00:33:58;15.30;99.90
14182;DHT22;7171;50.936;6.764;2023-08-08T00:36:25;15.30;99.90
14182;DHT22;7171;50.936;6.764;2023-08-08T00:38:51;15.30;99.90
14182;DHT22;7171;50.936;6.764;2023-08-08T00:41:18;15.30;99.90
14182;DHT22;7171;50.936;6.764;2023-08-08T00:43:45;15.20;99.90
14182;DHT22;7171;50.936;6.764;2023-08-08T00:46:13;15.20;99.90
14182;DHT22;7171;50.936;6.764;2023-08-08T00:48:40;15.20;99.90
14182;DHT22;7171;50.936;6.764;2023-08-08T00:51:07;15.20;99.90
14182;DHT22;7171;50.936;6.764;2023-08-08T00:53:34;15.10;99.90
14182;DHT22;7171;50.936;6.764;2023-08-08T00:56:01;15.10;99.90
14182;DHT22;7171;50.936;6.764;2023-08-08T00:58:28;15.10;99.90
14182;DHT22;7171;50.936;6.764;2023-08-08T01:00:55;15.10;99.90
14182;DHT22;7171;50.936;6.764;2023-08-08T01:03:26;15.00;99.90
14182;DHT22;7171;50.936;6.764;2023-08-08T01:05:59;15.00;99.90
14182;DHT22;7171;50.936;6.764;2023-08-08T01:08:33;15.00;99.90
14182;DHT22;7171;50.936;6.764;2023-08-08T01:11:02;14.90;99.90
14182;DHT22;7171;50.936;6.764;2023-08-08T01:13:31;14.90;99.90
14182;DHT22;7171;50.936;6.764;2023-08-08T01:15:59;14.90;99.90
14182;DHT22;7171;50.936;6.764;2023-08-08T01:18:27;14.90;99.90
14182;DHT22;7171;50.936;6.764;2023-08-08T01:20:55;14.90;99.90
14182;DHT22;7171;50.936;6.764;2023-08-08T01:23:25;14.80;99.90
14182;DHT22;7171;50.936;6.764;2023-08-08T01:25:57;14.80;99.90
14182;DHT22;7171;50.936;6.764;2023-08-08T01:28:24;14.80;99.90
14182;DHT22;7171;50.936;6.764;2023-08-08T01:30:51;14.80;99.90
14182;DHT22;7171;50.936;6.764;2023-08-08T01:33:19;14.80;99.90
14182;DHT22;7171;50.936;6.764;2023-08-08T01:35:50;14.80;99.90
14182;DHT22;7171;50.936;6.764;2023-08-08T01:38:28;14.80;99.90
14182;DHT22;7171;50.936;6.764;2023-08-08T01:40:59;14.80;99.90
14182;DHT22;7171;50.936;6.764;2023-08-08T01:43:26;14.80;99.90
14182;DHT22;7171;50.936;6.764;2023-08-08T01:45:54;14.80;99.90
14182;DHT22;7171;50.936;6.764;2023-08-08T01:48:21;14.70;99.90
14182;DHT22;7171;50.936;6.764;2023-08-08T01:50:48;14.70;99.90
14182;DHT22;7171;50.936;6.764;2023-08-08T01:53:15;14.70;99.90
14182;DHT22;7171;50.936;6.764;2023-08-08T01:55:42;14.70;99.90
14182;DHT22;7171;50.936;6.764;2023-08-08T01:58:10;14.70;99.90
14182;DHT22;7171;50.936;6.764;2023-08-08T02:00:36;14.70;99.90
14182;DHT22;7171;50.936;6.764;2023-08-08T02:03:03;14.80;99.90
14182;DHT22;7171;50.936;6.764;2023-08-08T02:05:30;14.70;99.90
14182;DHT22;7171;50.936;6.764;2023-08-08T02:07:57;14.70;99.90
14182;DHT22;7171;50.936;6.764;2023-08-08T02:10:24;14.70;99.90
14182;DHT22;7171;50.936;6.764;2023-08-08T02:12:50;14.70;99.90
14182;DHT22;7171;50.936;6.764;2023-08-08T02:15:18;14.70;99.90
14182;DHT22;7171;50.936;6.764;2023-08-08T02:17:46;14.70;99.90
14182;DHT22;7171;50.936;6.764;2023-08-08T02:20:13;14.70;99.90
14182;DHT22;7171;50.936;6.764;2023-08-08T02:22:40;14.70;99.90
14182;DHT22;7171;50.936;6.764;2023-08-08T02:25:07;14.70;99.90
14182;DHT22;7171;50.936;6.764;2023-08-08T02:27:34;14.70;99.90
14182;DHT22;7171;50.936;6.764;2023-08-08T02:30:00;14.60;99.90
14182;DHT22;7171;50.936;6.764;2023-08-08T02:32:29;14.70;99.90
14182;DHT22;7171;50.936;6.764;2023-08-08T02:34:55;14.60;99.90
14182;DHT22;7171;50.936;6.764;2023-08-08T02:37:22;14.60;99.90
14182;DHT22;7171;50.936;6.764;2023-08-08T02:39:49;14.60;99.90
14182;DHT22;7171;50.936;6.764;2023-08-08T02:42:15;14.60;99.90
14182;DHT22;7171;50.936;6.764;2023-08-08T02:44:42;14.50;99.90
14182;DHT22;7171;50.936;6.764;2023-08-08T02:47:09;14.50;99.90
14182;DHT22;7171;50.936;6.764;2023-08-08T02:49:37;14.50;99.90
14182;DHT22;7171;50.936;6.764;2023-08-08T02:52:04;14.50;99.90
14182;DHT22;7171;50.936;6.764;2023-08-08T02:54:31;14.50;99.90
14182;DHT22;7171;50.936;6.764;2023-08-08T02:56:58;14.50;99.90
14182;DHT22;7171;50.936;6.764;2023-08-08T02:59:24;14.50;99.90
14182;DHT22;7171;50.936;6.764;2023-08-08T03:01:51;14.50;99.90
14182;DHT22;7171;50.936;6.764;2023-08-08T03:04:18;14.50;99.90
14182;DHT22;7171;50.936;6.764;2023-08-08T03:06:46;14.50;99.90
14182;DHT22;7171;50.936;6.764;2023-08-08T03:09:13;14.40;99.90
14182;DHT22;7171;50.936;6.764;2023-08-08T03:11:39;14.50;99.90
14182;DHT22;7171;50.936;6.764;2023-08-08T03:14:07;14.50;99.90
14182;DHT22;7171;50.936;6.764;2023-08-08T03:16:34;14.50;99.90
14182;DHT22;7171;50.936;6.764;2023-08-08T03:19:01;14.40;99.90
14182;DHT22;7171;50.936;6.764;2023-08-08T03:21:27;14.50;99.90
14182;DHT22;7171;50.936;6.764;2023-08-08T03:23:56;14.40;99.90
14182;DHT22;7171;50.936;6.764;2023-08-08T03:26:23;14.40;99.90
14182;DHT22;7171;50.936;6.764;2023-08-08T03:28:50;14.40;99.90
14182;DHT22;7171;50.936;6.764;2023-08-08T03:31:18;14.40;99.90
14182;DHT22;7171;50.936;6.764;2023-08-08T03:33:45;14.40;99.90
14182;DHT22;7171;50.936;6.764;2023-08-08T03:36:13;14.40;99.90
14182;DHT22;7171;50.936;6.764;2023-08-08T03:38:40;14.40;99.90
14182;DHT22;7171;50.936;6.764;2023-08-08T03:41:11;14.40;99.90
14182;DHT22;7171;50.936;6.764;2023-08-08T03:43:39;14.40;99.90
14182;DHT22;7171;50.936;6.764;2023-08-08T03:46:06;14.40;99.90
14182;DHT22;7171;50.936;6.764;2023-08-08T03:48:32;14.40;99.90
14182;DHT22;7171;50.936;6.764;2023-08-08T03:50:59;14.40;99.90
14182;DHT22;7171;50.936;6.764;2023-08-08T03:53:26;14.40;99.90
14182;DHT22;7171;50.936;6.764;2023-08-08T03:55:52;14.40;99.90
14182;DHT22;7171;50.936;6.764;2023-08-08T03:58:21;14.40;99.90
14182;DHT22;7171;50.936;6.764;2023-08-08T04:00:48;14.40;99.90
14182;DHT22;7171;50.936;6.764;2023-08-08T04:03:15;14.40;99.90
14182;DHT22;7171;50.936;6.764;2023-08-08T04:05:44;14.40;99.90
14182;DHT22;7171;50.936;6.764;2023-08-08T04:08:12;14.40;99.90
14182;DHT22;7171;50.936;6.764;2023-08-08T04:10:38;14.30;99.90
14182;DHT22;7171;50.936;6.764;2023-08-08T04:13:05;14.30;99.90
14182;DHT22;7171;50.936;6.764;2023-08-08T04:15:33;14.30;99.90
14182;DHT22;7171;50.936;6.764;2023-08-08T04:18:00;14.30;99.90
14182;DHT22;7171;50.936;6.764;2023-08-08T04:20:27;14.20;99.90
14182;DHT22;7171;50.936;6.764;2023-08-08T04:22:54;14.30;99.90
14182;DHT22;7171;50.936;6.764;2023-08-08T04:25:21;14.30;99.90
14182;DHT22;7171;50.936;6.764;2023-08-08T04:27:48;14.30;99.90
14182;DHT22;7171;50.936;6.764;2023-08-08T04:30:15;14.30;99.90
14182;DHT22;7171;50.936;6.764;2023-08-08T04:32:43;14.30;99.90
14182;DHT22;7171;50.936;6.764;2023-08-08T04:35:10;14.30;99.90
14182;DHT22;7171;50.936;6.764;2023-08-08T04:37:37;14.30;99.90
14182;DHT22;7171;50.936;6.764;2023-08-08T04:40:04;14.30;99.90
14182;DHT22;7171;50.936;6.764;2023-08-08T04:42:31;14.30;99.90
14182;DHT22;7171;50.936;6.764;2023-08-08T04:44:58;14.30;99.90
14182;DHT22;7171;50.936;6.764;2023-08-08T04:47:25;14.30;99.90
14182;DHT22;7171;50.936;6.764;2023-08-08T04:49:52;14.40;99.90
14182;DHT22;7171;50.936;6.764;2023-08-08T04:52:19;14.40;99.90
14182;DHT22;7171;50.936;6.764;2023-08-08T04:54:45;14.40;99.90
14182;DHT22;7171;50.936;6.764;2023-08-08T04:57:12;14.40;99.90
14182;DHT22;7171;50.936;6.764;2023-08-08T04:59:39;14.50;99.90
14182;DHT22;7171;50.936;6.764;2023-08-08T05:02:06;14.50;99.90
14182;DHT22;7171;50.936;6.764;2023-08-08T05:04:33;14.60;99.90
14182;DHT22;7171;50.936;6.764;2023-08-08T05:07:01;14.60;99.90
14182;DHT22;7171;50.936;6.764;2023-08-08T05:09:27;14.70;99.90
14182;DHT22;7171;50.936;6.764;2023-08-08T05:11:54;14.70;99.90
14182;DHT22;7171;50.936;6.764;2023-08-08T05:14:21;14.80;99.90
14182;DHT22;7171;50.936;6.764;2023-08-08T05:16:48;14.80;99.90
14182;DHT22;7171;50.936;6.764;2023-08-08T05:19:14;14.90;99.90
14182;DHT22;7171;50.936;6.764;2023-08-08T05:21:41;14.90;99.90
14182;DHT22;7171;50.936;6.764;2023-08-08T05:24:09;15.00;99.90
14182;DHT22;7171;50.936;6.764;2023-08-08T05:26:36;15.00;99.90
14182;DHT22;7171;50.936;6.764;2023-08-08T05:29:03;15.00;99.90
14182;DHT22;7171;50.936;6.764;2023-08-08T05:31:30;15.10;99.90
14182;DHT22;7171;50.936;6.764;2023-08-08T05:33:56;15.10;99.90
14182;DHT22;7171;50.936;6.764;2023-08-08T05:36:23;15.10;99.90
14182;DHT22;7171;50.936;6.764;2023-08-08T05:38:50;15.20;99.90
14182;DHT22;7171;50.936;6.764;2023-08-08T05:41:18;15.20;99.90
14182;DHT22;7171;50.936;6.764;2023-08-08T05:43:45;15.30;99.90
14182;DHT22;7171;50.936;6.764;2023-08-08T05:46:11;15.30;99.90
14182;DHT22;7171;50.936;6.764;2023-08-08T05:48:38;15.40;99.90
14182;DHT22;7171;50.936;6.764;2023-08-08T05:51:05;15.40;99.90
14182;DHT22;7171;50.936;6.764;2023-08-08T05:53:32;15.40;99.90
14182;DHT22;7171;50.936;6.764;2023-08-08T05:55:58;15.50;99.90
14182;DHT22;7171;50.936;6.764;2023-08-08T05:58:26;15.50;99.90
14182;DHT22;7171;50.936;6.764;2023-08-08T06:00:53;15.60;99.90
14182;DHT22;7171;50.936;6.764;2023-08-08T06:03:20;15.70;99.90
14182;DHT22;7171;50.936;6.764;2023-08-08T06:05:47;15.80;99.90
14182;DHT22;7171;50.936;6.764;2023-08-08T06:08:13;15.80;99.90
14182;DHT22;7171;50.936;6.764;2023-08-08T06:10:42;15.90;99.90
14182;DHT22;7171;50.936;6.764;2023-08-08T06:13:09;15.90;99.90
14182;DHT22;7171;50.936;6.764;2023-08-08T06:15:37;16.00;99.90
14182;DHT22;7171;50.936;6.764;2023-08-08T06:18:05;16.00;99.90
14182;DHT22;7171;50.936;6.764;2023-08-08T06:20:31;16.10;99.90
14182;DHT22;7171;50.936;6.764;2023-08-08T06:22:58;16.10;99.90
14182;DHT22;7171;50.936;6.764;2023-08-08T06:25:25;16.20;99.90
14182;DHT22;7171;50.936;6.764;2023-08-08T06:27:52;16.20;99.90
14182;DHT22;7171;50.936;6.764;2023-08-08T06:30:19;16.20;99.90
14182;DHT22;7171;50.936;6.764;2023-08-08T06:32:47;16.30;99.90
14182;DHT22;7171;50.936;6.764;2023-08-08T06:35:14;16.30;99.90
14182;DHT22;7171;50.936;6.764;2023-08-08T06:37:42;16.40;99.90
14182;DHT22;7171;50.936;6.764;2023-08-08T06:40:11;16.40;99.90
14182;DHT22;7171;50.936;6.764;2023-08-08T06:42:38;16.40;99.90
14182;DHT22;7171;50.936;6.764;2023-08-08T06:45:06;16.50;99.90
14182;DHT22;7171;50.936;6.764;2023-08-08T06:47:32;16.50;99.90
14182;DHT22;7171;50.936;6.764;2023-08-08T06:50:01;16.50;99.90
14182;DHT22;7171;50.936;6.764;2023-08-08T06:52:27;16.60;99.90
14182;DHT22;7171;50.936;6.764;2023-08-08T06:54:54;16.60;99.90
14182;DHT22;7171;50.936;6.764;2023-08-08T06:57:21;16.70;99.90
14182;DHT22;7171;50.936;6.764;2023-08-08T06:59:48;16.70;99.90
14182;DHT22;7171;50.936;6.764;2023-08-08T07:02:16;16.80;99.90
14182;DHT22;7171;50.936;6.764;2023-08-08T07:04:43;16.80;99.90
14182;DHT22;7171;50.936;6.764;2023-08-08T07:07:11;16.80;99.90
14182;DHT22;7171;50.936;6.764;2023-08-08T07:09:38;16.80;99.90
14182;DHT22;7171;50.936;6.764;2023-08-08T07:12:05;16.90;99.90
14182;DHT22;7171;50.936;6.764;2023-08-08T07:14:32;16.90;99.90
14182;DHT22;7171;50.936;6.764;2023-08-08T07:16:59;16.90;99.90
14182;DHT22;7171;50.936;6.764;2023-08-08T07:19:27;16.90;99.90
14182;DHT22;7171;50.936;6.764;2023-08-08T07:21:54;16.90;99.90
14182;DHT22;7171;50.936;6.764;2023-08-08T07:24:22;16.90;99.90
14182;DHT22;7171;50.936;6.764;2023-08-08T07:26:54;16.90;99.90
14182;DHT22;7171;50.936;6.764;2023-08-08T07:29:20;16.90;99.90
14182;DHT22;7171;50.936;6.764;2023-08-08T07:31:47;16.90;99.90
14182;DHT22;7171;50.936;6.764;2023-08-08T07:34:14;16.90;99.90
14182;DHT22;7171;50.936;6.764;2023-08-08T07:36:41;17.00;99.90
14182;DHT22;7171;50.936;6.764;2023-08-08T07:39:07;17.00;99.90
14182;DHT22;7171;50.936;6.764;2023-08-08T07:41:36;17.00;99.90
14182;DHT22;7171;50.936;6.764;2023-08-08T07:44:03;17.00;99.90
14182;DHT22;7171;50.936;6.764;2023-08-08T07:46:30;17.00;99.90
14182;DHT22;7171;50.936;6.764;2023-08-08T07:48:56;17.00;99.90
14182;DHT22;7171;50.936;6.764;2023-08-08T07:51:24;17.10;99.90
14182;DHT22;7171;50.936;6.764;2023-08-08T07:53:51;17.10;99.90
14182;DHT22;7171;50.936;6.764;2023-08-08T07:56:18;17.10;99.90
14182;DHT22;7171;50.936;6.764;2023-08-08T07:58:47;17.20;99.90
14182;DHT22;7171;50.936;6.764;2023-08-08T08:01:13;17.20;99.90
14182;DHT22;7171;50.936;6.764;2023-08-08T08:03:40;17.30;99.90
14182;DHT22;7171;50.936;6.764;2023-08-08T08:06:07;17.30;99.90
14182;DHT22;7171;50.936;6.764;2023-08-08T08:08:34;17.30;99.90
14182;DHT22;7171;50.936;6.764;2023-08-08T08:11:01;17.40;99.90
14182;DHT22;7171;50.936;6.764;2023-08-08T08:13:28;17.40;99.90
14182;DHT22;7171;50.936;6.764;2023-08-08T08:15:56;17.40;99.90
14182;DHT22;7171;50.936;6.764;2023-08-08T08:18:23;17.50;99.90
14182;DHT22;7171;50.936;6.764;2023-08-08T08:20:50;17.50;99.90
14182;DHT22;7171;50.936;6.764;2023-08-08T08:23:17;17.60;99.90
14182;DHT22;7171;50.936;6.764;2023-08-08T08:25:43;17.60;99.90
14182;DHT22;7171;50.936;6.764;2023-08-08T08:28:10;17.70;99.90
14182;DHT22;7171;50.936;6.764;2023-08-08T08:30:37;17.70;99.90
14182;DHT22;7171;50.936;6.764;2023-08-08T08:33:05;17.70;99.90
14182;DHT22;7171;50.936;6.764;2023-08-08T08:35:33;17.80;99.90
14182;DHT22;7171;50.936;6.764;2023-08-08T08:38:00;17.80;99.90
14182;DHT22;7171;50.936;6.764;2023-08-08T08:40:27;17.80;99.90
14182;DHT22;7171;50.936;6.764;2023-08-08T08:42:54;17.80;99.90
14182;DHT22;7171;50.936;6.764;2023-08-08T08:45:22;17.80;99.90
14182;DHT22;7171;50.936;6.764;2023-08-08T08:47:49;17.80;99.90
14182;DHT22;7171;50.936;6.764;2023-08-08T08:50:19;17.80;99.90
14182;DHT22;7171;50.936;6.764;2023-08-08T08:52:46;17.90;99.90
14182;DHT22;7171;50.936;6.764;2023-08-08T08:55:13;17.90;99.90
14182;DHT22;7171;50.936;6.764;2023-08-08T08:57:40;17.90;99.90
14182;DHT22;7171;50.936;6.764;2023-08-08T09:00:07;17.90;99.90
14182;DHT22;7171;50.936;6.764;2023-08-08T09:02:34;18.00;99.90
14182;DHT22;7171;50.936;6.764;2023-08-08T09:05:03;18.00;99.90
14182;DHT22;7171;50.936;6.764;2023-08-08T09:07:33;18.10;99.90
14182;DHT22;7171;50.936;6.764;2023-08-08T09:10:02;18.10;99.90
14182;DHT22;7171;50.936;6.764;2023-08-08T09:12:29;18.20;99.90
14182;DHT22;7171;50.936;6.764;2023-08-08T09:14:57;18.20;99.90
14182;DHT22;7171;50.936;6.764;2023-08-08T09:17:25;18.20;99.90
14182;DHT22;7171;50.936;6.764;2023-08-08T09:19:53;18.20;99.90
14182;DHT22;7171;50.936;6.764;2023-08-08T09:22:20;18.20;99.90
14182;DHT22;7171;50.936;6.764;2023-08-08T09:24:48;18.20;99.90
14182;DHT22;7171;50.936;6.764;2023-08-08T09:27:15;18.20;99.90
14182;DHT22;7171;50.936;6.764;2023-08-08T09:29:42;18.20;99.90
14182;DHT22;7171;50.936;6.764;2023-08-08T09:32:09;18.20;99.90
14182;DHT22;7171;50.936;6.764;2023-08-08T09:34:37;18.20;99.90
14182;DHT22;7171;50.936;6.764;2023-08-08T09:37:06;18.30;99.90
14182;DHT22;7171;50.936;6.764;2023-08-08T09:39:32;18.30;99.90
14182;DHT22;7171;50.936;6.764;2023-08-08T09:42:03;18.40;99.90
14182;DHT22;7171;50.936;6.764;2023-08-08T09:44:30;18.50;99.90
14182;DHT22;7171;50.936;6.764;2023-08-08T09:46:57;18.40;99.90
14182;DHT22;7171;50.936;6.764;2023-08-08T09:49:24;18.60;99.90
14182;DHT22;7171;50.936;6.764;2023-08-08T09:51:51;18.70;99.90
14182;DHT22;7171;50.936;6.764;2023-08-08T09:54:18;18.70;99.90
14182;DHT22;7171;50.936;6.764;2023-08-08T09:56:46;18.70;99.90
14182;DHT22;7171;50.936;6.764;2023-08-08T09:59:17;18.70;99.90
14182;DHT22;7171;50.936;6.764;2023-08-08T10:01:44;18.70;99.90
14182;DHT22;7171;50.936;6.764;2023-08-08T10:04:13;18.70;99.90
14182;DHT22;7171;50.936;6.764;2023-08-08T10:06:39;18.70;99.90
14182;DHT22;7171;50.936;6.764;2023-08-08T10:09:07;18.70;99.90
14182;DHT22;7171;50.936;6.764;2023-08-08T10:11:34;18.80;99.90
14182;DHT22;7171;50.936;6.764;2023-08-08T10:14:02;18.80;99.90
14182;DHT22;7171;50.936;6.764;2023-08-08T10:16:33;18.90;99.90
14182;DHT22;7171;50.936;6.764;2023-08-08T10:19:03;18.90;99.90
14182;DHT22;7171;50.936;6.764;2023-08-08T10:21:33;18.90;99.90
14182;DHT22;7171;50.936;6.764;2023-08-08T10:26:30;19.00;99.90
14182;DHT22;7171;50.936;6.764;2023-08-08T10:28:58;19.00;99.90
14182;DHT22;7171;50.936;6.764;2023-08-08T10:31:26;19.10;99.90
14182;DHT22;7171;50.936;6.764;2023-08-08T10:34:03;16.80;99.90
14182;DHT22;7171;50.936;6.764;2023-08-08T10:36:44;19.20;99.90
14182;DHT22;7171;50.936;6.764;2023-08-08T10:39:15;19.20;99.90
14182;DHT22;7171;50.936;6.764;2023-08-08T10:41:45;19.20;99.90
14182;DHT22;7171;50.936;6.764;2023-08-08T10:44:12;19.20;99.90
14182;DHT22;7171;50.936;6.764;2023-08-08T10:46:41;19.20;99.90
14182;DHT22;7171;50.936;6.764;2023-08-08T10:49:12;19.20;99.90
14182;DHT22;7171;50.936;6.764;2023-08-08T10:51:41;19.20;99.90
14182;DHT22;7171;50.936;6.764;2023-08-08T10:54:14;19.20;99.90
14182;DHT22;7171;50.936;6.764;2023-08-08T10:56:41;19.30;99.90
14182;DHT22;7171;50.936;6.764;2023-08-08T10:59:14;19.20;99.90
14182;DHT22;7171;50.936;6.764;2023-08-08T11:01:44;19.20;99.90
14182;DHT22;7171;50.936;6.764;2023-08-08T11:04:13;19.20;99.90
14182;DHT22;7171;50.936;6.764;2023-08-08T11:06:40;19.20;99.90
14182;DHT22;7171;50.936;6.764;2023-08-08T11:09:07;19.20;99.90
14182;DHT22;7171;50.936;6.764;2023-08-08T11:11:36;19.20;99.90
14182;DHT22;7171;50.936;6.764;2023-08-08T11:14:10;19.20;99.90
14182;DHT22;7171;50.936;6.764;2023-08-08T11:16:37;19.20;99.90
14182;DHT22;7171;50.936;6.764;2023-08-08T11:19:04;19.20;99.90
14182;DHT22;7171;50.936;6.764;2023-08-08T11:21:34;19.20;99.90
14182;DHT22;7171;50.936;6.764;2023-08-08T11:24:03;19.20;99.90
14182;DHT22;7171;50.936;6.764;2023-08-08T11:26:30;19.20;99.90
14182;DHT22;7171;50.936;6.764;2023-08-08T11:28:58;19.20;99.90
14182;DHT22;7171;50.936;6.764;2023-08-08T11:31:25;19.20;99.90
14182;DHT22;7171;50.936;6.764;2023-08-08T11:33:53;19.20;99.90
14182;DHT22;7171;50.936;6.764;2023-08-08T11:36:20;19.30;99.90
14182;DHT22;7171;50.936;6.764;2023-08-08T11:38:49;19.30;99.90
14182;DHT22;7171;50.936;6.764;2023-08-08T11:41:19;19.40;99.90
14182;DHT22;7171;50.936;6.764;2023-08-08T11:43:47;19.40;99.90
14182;DHT22;7171;50.936;6.764;2023-08-08T11:46:14;19.40;99.90
14182;DHT22;7171;50.936;6.764;2023-08-08T11:48:41;19.40;99.90
14182;DHT22;7171;50.936;6.764;2023-08-08T11:51:08;19.50;99.90
14182;DHT22;7171;50.936;6.764;2023-08-08T11:53:35;19.50;99.90
14182;DHT22;7171;50.936;6.764;2023-08-08T11:56:04;19.50;99.90
14182;DHT22;7171;50.936;6.764;2023-08-08T11:58:32;19.40;99.90
14182;DHT22;7171;50.936;6.764;2023-08-08T12:00:59;19.40;99.90
14182;DHT22;7171;50.936;6.764;2023-08-08T12:03:26;19.40;99.90
14182;DHT22;7171;50.936;6.764;2023-08-08T12:05:53;19.30;99.90
14182;DHT22;7171;50.936;6.764;2023-08-08T12:08:20;19.30;99.90
14182;DHT22;7171;50.936;6.764;2023-08-08T12:10:48;19.30;99.90
14182;DHT22;7171;50.936;6.764;2023-08-08T12:13:20;19.30;99.90
14182;DHT22;7171;50.936;6.764;2023-08-08T12:15:47;19.30;99.90
14182;DHT22;7171;50.936;6.764;2023-08-08T12:18:16;19.30;99.90
14182;DHT22;7171;50.936;6.764;2023-08-08T12:20:44;19.30;99.90
14182;DHT22;7171;50.936;6.764;2023-08-08T12:23:11;19.30;99.90
14182;DHT22;7171;50.936;6.764;2023-08-08T12:25:38;19.30;99.90
14182;DHT22;7171;50.936;6.764;2023-08-08T12:28:05;19.40;99.90
14182;DHT22;7171;50.936;6.764;2023-08-08T12:30:34;19.40;99.90
14182;DHT22;7171;50.936;6.764;2023-08-08T12:33:00;19.40;99.90
14182;DHT22;7171;50.936;6.764;2023-08-08T12:35:27;19.40;99.90
14182;DHT22;7171;50.936;6.764;2023-08-08T12:37:54;19.40;99.90
14182;DHT22;7171;50.936;6.764;2023-08-08T12:40:21;19.50;99.90
14182;DHT22;7171;50.936;6.764;2023-08-08T12:42:48;19.50;99.90
14182;DHT22;7171;50.936;6.764;2023-08-08T12:45:15;19.50;99.90
14182;DHT22;7171;50.936;6.764;2023-08-08T12:47:44;19.50;99.90
14182;DHT22;7171;50.936;6.764;2023-08-08T12:50:11;19.50;99.90
14182;DHT22;7171;50.936;6.764;2023-08-08T12:52:38;19.50;99.90
14182;DHT22;7171;50.936;6.764;2023-08-08T12:55:06;19.60;99.90
14182;DHT22;7171;50.936;6.764;2023-08-08T12:57:34;19.60;99.90
14182;DHT22;7171;50.936;6.764;2023-08-08T13:00:01;19.60;99.90
14182;DHT22;7171;50.936;6.764;2023-08-08T13:02:28;19.60;99.90
14182;DHT22;7171;50.936;6.764;2023-08-08T13:04:56;19.60;99.90
14182;DHT22;7171;50.936;6.764;2023-08-08T13:07:23;18.60;99.90
14182;DHT22;7171;50.936;6.764;2023-08-08T13:09:49;19.40;99.90
14182;DHT22;7171;50.936;6.764;2023-08-08T13:12:16;19.80;99.90
14182;DHT22;7171;50.936;6.764;2023-08-08T13:14:43;19.40;99.90
14182;DHT22;7171;50.936;6.764;2023-08-08T13:17:10;19.30;99.90
14182;DHT22;7171;50.936;6.764;2023-08-08T13:19:36;19.30;99.90
14182;DHT22;7171;50.936;6.764;2023-08-08T13:22:04;19.30;99.90
14182;DHT22;7171;50.936;6.764;2023-08-08T13:24:31;19.30;99.90
14182;DHT22;7171;50.936;6.764;2023-08-08T13:26:58;19.30;99.90
14182;DHT22;7171;50.936;6.764;2023-08-08T13:29:25;19.20;99.90
14182;DHT22;7171;50.936;6.764;2023-08-08T13:31:51;19.20;99.90
14182;DHT22;7171;50.936;6.764;2023-08-08T13:34:18;19.20;99.90
14182;DHT22;7171;50.936;6.764;2023-08-08T13:36:45;19.20;99.90
14182;DHT22;7171;50.936;6.764;2023-08-08T13:39:13;19.20;99.90
14182;DHT22;7171;50.936;6.764;2023-08-08T13:41:40;19.10;99.90
14182;DHT22;7171;50.936;6.764;2023-08-08T13:44:06;19.10;99.90
14182;DHT22;7171;50.936;6.764;2023-08-08T13:46:33;19.10;99.90
14182;DHT22;7171;50.936;6.764;2023-08-08T13:49:00;19.10;99.90
14182;DHT22;7171;50.936;6.764;2023-08-08T13:51:27;19.10;99.90
14182;DHT22;7171;50.936;6.764;2023-08-08T13:53:53;19.10;99.90
14182;DHT22;7171;50.936;6.764;2023-08-08T13:56:21;19.00;99.90
14182;DHT22;7171;50.936;6.764;2023-08-08T13:58:48;19.00;99.90
14182;DHT22;7171;50.936;6.764;2023-08-08T14:01:15;19.00;99.90
14182;DHT22;7171;50.936;6.764;2023-08-08T14:03:42;19.00;99.90
14182;DHT22;7171;50.936;6.764;2023-08-08T14:06:09;18.90;99.90
14182;DHT22;7171;50.936;6.764;2023-08-08T14:08:36;18.90;99.90
14182;DHT22;7171;50.936;6.764;2023-08-08T14:11:03;18.90;99.90
14182;DHT22;7171;50.936;6.764;2023-08-08T14:13:31;19.00;99.90
14182;DHT22;7171;50.936;6.764;2023-08-08T14:15:59;19.00;99.90
14182;DHT22;7171;50.936;6.764;2023-08-08T14:18:26;19.10;99.90
14182;DHT22;7171;50.936;6.764;2023-08-08T14:20:53;19.20;99.90
14182;DHT22;7171;50.936;6.764;2023-08-08T14:23:19;19.30;99.90
14182;DHT22;7171;50.936;6.764;2023-08-08T14:25:47;19.50;99.90
14182;DHT22;7171;50.936;6.764;2023-08-08T14:28:14;19.60;99.90
14182;DHT22;7171;50.936;6.764;2023-08-08T14:30:42;19.70;99.90
14182;DHT22;7171;50.936;6.764;2023-08-08T14:33:09;19.80;99.90
14182;DHT22;7171;50.936;6.764;2023-08-08T14:35:35;19.90;99.90
14182;DHT22;7171;50.936;6.764;2023-08-08T14:38:02;20.00;99.90
14182;DHT22;7171;50.936;6.764;2023-08-08T14:40:29;20.10;99.90
14182;DHT22;7171;50.936;6.764;2023-08-08T14:42:57;20.20;99.90
14182;DHT22;7171;50.936;6.764;2023-08-08T14:45:24;20.30;99.90
14182;DHT22;7171;50.936;6.764;2023-08-08T14:47:52;20.50;99.90
14182;DHT22;7171;50.936;6.764;2023-08-08T14:50:19;20.60;99.90
14182;DHT22;7171;50.936;6.764;2023-08-08T14:52:46;20.70;99.90
14182;DHT22;7171;50.936;6.764;2023-08-08T14:55:13;20.80;99.90
14182;DHT22;7171;50.936;6.764;2023-08-08T14:57:40;20.90;99.90
14182;DHT22;7171;50.936;6.764;2023-08-08T15:00:08;21.00;99.90
14182;DHT22;7171;50.936;6.764;2023-08-08T15:02:35;21.10;99.90
14182;DHT22;7171;50.936;6.764;2023-08-08T15:05:03;21.10;99.90
14182;DHT22;7171;50.936;6.764;2023-08-08T15:07:30;21.10;99.90
14182;DHT22;7171;50.936;6.764;2023-08-08T15:09:57;21.10;99.90
14182;DHT22;7171;50.936;6.764;2023-08-08T15:12:24;21.10;99.90
14182;DHT22;7171;50.936;6.764;2023-08-08T15:14:51;21.10;99.90
14182;DHT22;7171;50.936;6.764;2023-08-08T15:17:17;21.10;99.90
14182;DHT22;7171;50.936;6.764;2023-08-08T15:19:44;21.30;99.90
14182;DHT22;7171;50.936;6.764;2023-08-08T15:22:12;21.30;99.90
14182;DHT22;7171;50.936;6.764;2023-08-08T15:24:39;21.30;99.90
14182;DHT22;7171;50.936;6.764;2023-08-08T15:27:06;21.40;99.90
14182;DHT22;7171;50.936;6.764;2023-08-08T15:29:32;21.50;99.90
14182;DHT22;7171;50.936;6.764;2023-08-08T15:31:59;21.50;99.90
14182;DHT22;7171;50.936;6.764;2023-08-08T15:34:26;21.60;99.90
14182;DHT22;7171;50.936;6.764;2023-08-08T15:36:53;21.70;99.90
14182;DHT22;7171;50.936;6.764;2023-08-08T15:39:25;21.80;99.90
14182;DHT22;7171;50.936;6.764;2023-08-08T15:41:51;21.80;99.90
14182;DHT22;7171;50.936;6.764;2023-08-08T15:44:18;21.80;99.90
14182;DHT22;7171;50.936;6.764;2023-08-08T15:49:13;22.00;99.90
14182;DHT22;7171;50.936;6.764;2023-08-08T15:51:41;22.10;99.90